Time;durP1;ratioP1;P1;durP2;ratioP2;P2;SDS_P1;SDS_P2;PMS_P1;PMS_P2;Temp;Humidity;BMP_temperature;BMP_pressure;BME280_temperature;BME280_humidity;BME280_pressure;Samples;Min_cycle;Max_cycle;Signal;HPM_P1;HPM_P2
2021/12/30 00:02:16;;;;;;;39.50;17.20;;;;;;;;;;5087114;28;20384;-64
2021/12/30 00:04:43;;;;;;;35.28;16.25;;;;;;;;;;5080645;28;20524;-64
2021/12/30 00:07:16;;;;;;;37.90;16.40;;;;;;;;;;5086480;28;20131;-64
2021/12/30 00:09:42;;;;;;;38.00;17.48;;;;;;;;;;5087918;28;20044;-64
2021/12/30 00:12:09;;;;;;;38.58;18.67;;;;;;;;;;5088434;28;20079;-64
2021/12/30 00:14:39;;;;;;;34.45;15.60;;;;;;;;;;5082979;28;20129;-64
2021/12/30 00:17:05;;;;;;;39.80;17.58;;;;;;;;;;5082983;28;20143;-64
2021/12/30 00:19:32;;;;;;;36.05;16.70;;;;;;;;;;5083428;28;20492;-64
2021/12/30 00:21:58;;;;;;;36.67;17.57;;;;;;;;;;5082163;28;20040;-65
2021/12/30 00:24:25;;;;;;;38.03;16.88;;;;;;;;;;5086012;28;20133;-64
2021/12/30 00:26:51;;;;;;;35.47;16.90;;;;;;;;;;5084375;28;20047;-64
2021/12/30 00:29:18;;;;;;;35.75;16.65;;;;;;;;;;5084282;28;20076;-64
2021/12/30 00:31:45;;;;;;;34.08;15.68;;;;;;;;;;5079996;28;20052;-64
2021/12/30 00:34:12;;;;;;;35.83;16.10;;;;;;;;;;5085113;28;20040;-64
2021/12/30 00:36:45;;;;;;;32.17;15.80;;;;;;;;;;5082149;28;20670;-64
2021/12/30 00:39:11;;;;;;;33.92;15.55;;;;;;;;;;5085742;28;20128;-64
2021/12/30 00:41:38;;;;;;;37.92;16.98;;;;;;;;;;5086537;28;20725;-64
2021/12/30 00:44:05;;;;;;;38.03;16.75;;;;;;;;;;5085930;28;20441;-64
2021/12/30 00:46:31;;;;;;;34.95;16.70;;;;;;;;;;5082746;28;20145;-64
2021/12/30 00:48:58;;;;;;;29.50;13.13;;;;;;;;;;5081600;28;20075;-64
2021/12/30 00:51:27;;;;;;;36.08;16.67;;;;;;;;;;5087676;28;20528;-64
2021/12/30 00:53:56;;;;;;;37.92;18.27;;;;;;;;;;5082685;28;20052;-64
2021/12/30 00:56:22;;;;;;;39.70;16.88;;;;;;;;;;5085210;28;20143;-65
2021/12/30 00:58:49;;;;;;;37.30;17.17;;;;;;;;;;5087793;28;20130;-64
2021/12/30 01:01:15;;;;;;;41.67;18.42;;;;;;;;;;5082948;28;20141;-64
2021/12/30 01:03:42;;;;;;;43.28;18.67;;;;;;;;;;5080005;28;20052;-64
2021/12/30 01:06:08;;;;;;;42.60;18.85;;;;;;;;;;5077070;28;20139;-64
2021/12/30 01:08:34;;;;;;;47.30;18.83;;;;;;;;;;5076329;28;20044;-65
2021/12/30 01:11:05;;;;;;;40.22;18.45;;;;;;;;;;5076899;28;20815;-64
2021/12/30 01:13:32;;;;;;;44.92;18.45;;;;;;;;;;5077335;28;20051;-65
2021/12/30 01:16:03;;;;;;;39.30;16.70;;;;;;;;;;5083592;28;20084;-64
2021/12/30 01:18:43;;;;;;;44.47;19.83;;;;;;;;;;5083142;28;20036;-64
2021/12/30 01:21:11;;;;;;;45.30;19.83;;;;;;;;;;5079947;28;20076;-64
2021/12/30 01:23:41;;;;;;;48.63;19.67;;;;;;;;;;5083388;28;20078;-64
2021/12/30 01:26:08;;;;;;;50.38;20.77;;;;;;;;;;5084713;28;20072;-64
2021/12/30 01:28:34;;;;;;;50.50;20.23;;;;;;;;;;5077561;28;20584;-64
2021/12/30 01:31:01;;;;;;;41.30;19.52;;;;;;;;;;5075080;28;20787;-64
2021/12/30 01:33:28;;;;;;;50.80;20.33;;;;;;;;;;5076934;28;20674;-64
2021/12/30 01:35:54;;;;;;;45.40;19.63;;;;;;;;;;5076346;28;20054;-65
2021/12/30 01:38:21;;;;;;;43.20;19.37;;;;;;;;;;5077696;28;20309;-65
2021/12/30 01:40:49;;;;;;;50.38;20.17;;;;;;;;;;5076651;28;20961;-64
2021/12/30 01:43:22;;;;;;;48.78;18.23;;;;;;;;;;5075128;28;20044;-64
2021/12/30 01:45:50;;;;;;;31.17;14.07;;;;;;;;;;5079896;28;20076;-65
2021/12/30 01:48:16;;;;;;;43.80;18.73;;;;;;;;;;5081154;28;20857;-65
2021/12/30 01:50:45;;;;;;;43.90;18.25;;;;;;;;;;5080438;28;20583;-65
2021/12/30 01:53:11;;;;;;;45.42;17.75;;;;;;;;;;5081265;28;20591;-65
2021/12/30 01:55:39;;;;;;;38.78;17.02;;;;;;;;;;5085653;28;20127;-64
2021/12/30 01:58:10;;;;;;;43.58;18.60;;;;;;;;;;5086298;28;20827;-64
2021/12/30 02:00:37;;;;;;;39.40;16.80;;;;;;;;;;5080200;28;20083;-65
2021/12/30 02:03:05;;;;;;;;;;;;;;;;;;5087982;28;20044;-64
2021/12/30 02:05:33;;;;;;;40.90;17.10;;;;;;;;;;5085221;28;19927;-64
2021/12/30 02:07:59;;;;;;;41.90;18.00;;;;;;;;;;5085591;28;20047;-64
2021/12/30 02:10:26;;;;;;;38.28;16.88;;;;;;;;;;5080178;28;20080;-64
2021/12/30 02:12:55;;;;;;;46.95;17.25;;;;;;;;;;5084414;28;20487;-64
2021/12/30 02:15:21;;;;;;;38.78;16.90;;;;;;;;;;5083800;28;20499;-64
2021/12/30 02:17:49;;;;;;;45.03;17.85;;;;;;;;;;5082133;28;20048;-64
2021/12/30 02:20:36;;;;;;;45.85;19.08;;;;;;;;;;5083023;28;20113;-64
2021/12/30 02:23:03;;;;;;;47.90;18.52;;;;;;;;;;5082590;28;20147;-64
2021/12/30 02:25:29;;;;;;;33.28;12.93;;;;;;;;;;5083260;28;20124;-64
2021/12/30 02:27:55;;;;;;;44.53;17.50;;;;;;;;;;5075443;28;20132;-65
2021/12/30 02:30:22;;;;;;;37.63;16.20;;;;;;;;;;5083927;28;20123;-64
2021/12/30 02:32:48;;;;;;;40.22;16.27;;;;;;;;;;5083751;28;20071;-65
2021/12/30 02:35:15;;;;;;;37.05;16.67;;;;;;;;;;5082852;28;20135;-65
2021/12/30 02:37:41;;;;;;;37.33;15.63;;;;;;;;;;5084200;28;20048;-65
2021/12/30 02:40:08;;;;;;;31.83;15.73;;;;;;;;;;5084290;28;20139;-65
2021/12/30 02:42:34;;;;;;;36.08;16.02;;;;;;;;;;5063723;28;20538;-65
2021/12/30 02:45:03;;;;;;;32.50;14.30;;;;;;;;;;5081158;28;20048;-65
2021/12/30 02:47:34;;;;;;;39.38;16.38;;;;;;;;;;5082862;28;20541;-65
2021/12/30 02:50:00;;;;;;;33.60;13.90;;;;;;;;;;5080169;28;20058;-65
2021/12/30 02:52:26;;;;;;;35.53;13.75;;;;;;;;;;5082298;28;20086;-65
2021/12/30 02:54:59;;;;;;;40.25;14.52;;;;;;;;;;5082271;28;20127;-65
2021/12/30 02:57:26;;;;;;;31.85;14.32;;;;;;;;;;5081722;28;20128;-65
2021/12/30 02:59:52;;;;;;;35.25;13.10;;;;;;;;;;5076859;28;20163;-65
2021/12/30 03:02:19;;;;;;;33.17;13.85;;;;;;;;;;5080635;28;20139;-63
2021/12/30 03:04:45;;;;;;;35.05;15.40;;;;;;;;;;5081279;28;20050;-62
2021/12/30 03:07:12;;;;;;;35.85;14.73;;;;;;;;;;5080379;28;20083;-63
2021/12/30 03:09:38;;;;;;;33.20;13.63;;;;;;;;;;5084286;28;20052;-63
2021/12/30 03:12:05;;;;;;;31.70;14.35;;;;;;;;;;5085787;28;20111;-63
2021/12/30 03:14:31;;;;;;;34.90;14.32;;;;;;;;;;5076652;28;20123;-63
2021/12/30 03:16:58;;;;;;;36.40;14.88;;;;;;;;;;5081900;28;20151;-63
2021/12/30 03:19:25;;;;;;;32.85;13.65;;;;;;;;;;5085398;28;20135;-65
2021/12/30 03:21:55;;;;;;;37.50;14.43;;;;;;;;;;5083186;28;20048;-65
2021/12/30 03:24:22;;;;;;;34.33;15.00;;;;;;;;;;5082485;28;20058;-65
2021/12/30 03:26:48;;;;;;;37.60;14.68;;;;;;;;;;5083366;28;20564;-65
2021/12/30 03:29:15;;;;;;;37.50;14.25;;;;;;;;;;5081689;28;20135;-65
2021/12/30 03:31:41;;;;;;;41.08;15.90;;;;;;;;;;5082855;28;20128;-63
2021/12/30 03:34:08;;;;;;;35.10;14.40;;;;;;;;;;5081561;28;20101;-63
2021/12/30 03:36:35;;;;;;;34.65;15.93;;;;;;;;;;5082546;28;20147;-63
2021/12/30 03:39:01;;;;;;;36.33;14.98;;;;;;;;;;5079078;28;20076;-63
2021/12/30 03:41:28;;;;;;;35.00;14.50;;;;;;;;;;5083700;28;20052;-63
2021/12/30 03:43:55;;;;;;;30.55;13.35;;;;;;;;;;5082328;28;20135;-65
2021/12/30 03:46:22;;;;;;;32.50;13.77;;;;;;;;;;5080944;28;20091;-65
2021/12/30 03:48:48;;;;;;;26.75;12.48;;;;;;;;;;5079043;28;20068;-65
2021/12/30 03:51:24;;;;;;;30.52;13.63;;;;;;;;;;5079594;28;20075;-65
2021/12/30 03:53:55;;;;;;;27.85;11.48;;;;;;;;;;5080032;28;20135;-65
2021/12/30 03:56:24;;;;;;;26.55;12.48;;;;;;;;;;5079424;28;20143;-65
2021/12/30 03:58:51;;;;;;;25.50;11.88;;;;;;;;;;5084116;28;20068;-64
2021/12/30 04:01:19;;;;;;;27.20;12.18;;;;;;;;;;5082958;28;20043;-65
2021/12/30 04:03:47;;;;;;;32.03;12.98;;;;;;;;;;5078827;28;20047;-65
2021/12/30 04:06:13;;;;;;;25.75;11.90;;;;;;;;;;5074762;28;20155;-64
2021/12/30 04:08:47;;;;;;;23.65;11.73;;;;;;;;;;5077078;28;20135;-64
2021/12/30 04:11:13;;;;;;;26.98;11.90;;;;;;;;;;5076484;28;20124;-65
2021/12/30 04:13:40;;;;;;;25.03;10.70;;;;;;;;;;5076543;28;20045;-65
2021/12/30 04:16:13;;;;;;;21.55;9.75;;;;;;;;;;5085144;28;20134;-65
2021/12/30 04:18:39;;;;;;;28.50;10.73;;;;;;;;;;5080331;28;20465;-64
2021/12/30 04:21:06;;;;;;;22.33;10.48;;;;;;;;;;5081410;28;20768;-64
2021/12/30 04:23:32;;;;;;;21.13;9.88;;;;;;;;;;5080581;28;20131;-64
2021/12/30 04:25:59;;;;;;;21.20;9.70;;;;;;;;;;5079238;28;20091;-64
2021/12/30 04:28:25;;;;;;;21.45;10.15;;;;;;;;;;5083777;28;20098;-65
2021/12/30 04:30:59;;;;;;;24.30;9.45;;;;;;;;;;5061369;28;20484;-64
2021/12/30 04:33:25;;;;;;;27.23;10.10;;;;;;;;;;5053602;28;20072;-64
2021/12/30 04:35:56;;;;;;;22.90;9.10;;;;;;;;;;5062121;28;20591;-65
2021/12/30 04:38:26;;;;;;;22.00;9.18;;;;;;;;;;5059603;28;20155;-65
2021/12/30 04:40:53;;;;;;;20.83;9.13;;;;;;;;;;5062117;28;20045;-65
2021/12/30 04:43:20;;;;;;;21.48;8.68;;;;;;;;;;5065303;28;20540;-65
2021/12/30 04:45:47;;;;;;;20.38;8.65;;;;;;;;;;5058189;28;20140;-64
2021/12/30 04:48:15;;;;;;;19.13;8.68;;;;;;;;;;5057802;28;20044;-65
2021/12/30 04:50:41;;;;;;;16.20;7.65;;;;;;;;;;5059051;28;20062;-65
2021/12/30 04:53:11;;;;;;;16.38;7.70;;;;;;;;;;5058200;28;20143;-65
2021/12/30 04:55:38;;;;;;;14.65;7.22;;;;;;;;;;5055955;28;20475;-65
2021/12/30 04:58:05;;;;;;;14.75;6.63;;;;;;;;;;5041182;28;20111;-65
2021/12/30 05:00:31;;;;;;;14.13;6.78;;;;;;;;;;5037837;28;20179;-65
2021/12/30 05:03:12;;;;;;;14.32;7.22;;;;;;;;;;5038116;28;20088;-65
2021/12/30 05:05:48;;;;;;;11.50;6.32;;;;;;;;;;5039398;28;20048;-64
2021/12/30 05:08:16;;;;;;;13.75;6.55;;;;;;;;;;5038364;28;20136;-65
2021/12/30 05:10:43;;;;;;;11.85;6.30;;;;;;;;;;5037604;28;20792;-65
2021/12/30 05:13:16;;;;;;;11.52;6.60;;;;;;;;;;5037040;28;20049;-65
2021/12/30 05:15:43;;;;;;;13.68;6.72;;;;;;;;;;5041856;28;20088;-65
2021/12/30 05:18:11;;;;;;;10.57;5.53;;;;;;;;;;5042361;28;20052;-64
2021/12/30 05:20:38;;;;;;;11.18;5.57;;;;;;;;;;5041314;28;20083;-65
2021/12/30 05:23:05;;;;;;;12.85;5.35;;;;;;;;;;5038942;28;20212;-65
2021/12/30 05:25:32;;;;;;;9.13;4.47;;;;;;;;;;5036205;28;20076;-65
2021/12/30 05:28:01;;;;;;;8.90;4.97;;;;;;;;;;5037520;28;20045;-65
2021/12/30 05:30:27;;;;;;;9.70;5.25;;;;;;;;;;5037948;28;20147;-65
2021/12/30 05:32:55;;;;;;;8.63;4.80;;;;;;;;;;5037695;28;20132;-65
2021/12/30 05:35:22;;;;;;;10.65;5.28;;;;;;;;;;5039853;28;20136;-64
2021/12/30 05:37:48;;;;;;;7.70;4.43;;;;;;;;;;5041508;28;20057;-65
2021/12/30 05:40:17;;;;;;;7.57;3.78;;;;;;;;;;5044971;28;20054;-65
2021/12/30 05:42:45;;;;;;;7.45;4.10;;;;;;;;;;5040511;28;20124;-65
2021/12/30 05:45:14;;;;;;;7.90;4.20;;;;;;;;;;5037600;28;20040;-65
2021/12/30 05:47:41;;;;;;;8.45;4.30;;;;;;;;;;5038721;28;20091;-65
2021/12/30 05:50:17;;;;;;;10.07;4.82;;;;;;;;;;5036132;28;20520;-65
2021/12/30 05:52:44;;;;;;;8.60;4.85;;;;;;;;;;5036403;28;20073;-65
2021/12/30 05:55:11;;;;;;;7.80;4.03;;;;;;;;;;5035766;28;20601;-65
2021/12/30 05:57:38;;;;;;;9.90;3.95;;;;;;;;;;5059341;28;20055;-64
2021/12/30 06:00:05;;;;;;;6.20;3.33;;;;;;;;;;5078622;28;20481;-65
2021/12/30 06:02:32;;;;;;;8.95;4.72;;;;;;;;;;5081043;28;20098;-65
2021/12/30 06:04:59;;;;;;;7.13;4.28;;;;;;;;;;5080362;28;20135;-65
2021/12/30 06:07:25;;;;;;;7.55;4.20;;;;;;;;;;5082510;28;20128;-65
2021/12/30 06:09:51;;;;;;;7.75;4.45;;;;;;;;;;5083941;28;20095;-65
2021/12/30 06:12:25;;;;;;;9.35;4.30;;;;;;;;;;5076478;28;20123;-66
2021/12/30 06:14:51;;;;;;;10.65;5.13;;;;;;;;;;5075211;28;20156;-65
2021/12/30 06:17:18;;;;;;;9.38;4.93;;;;;;;;;;5075562;28;20077;-65
2021/12/30 06:19:44;;;;;;;11.93;5.13;;;;;;;;;;5058150;28;20175;-65
2021/12/30 06:22:11;;;;;;;10.52;4.78;;;;;;;;;;5078012;28;21153;-65
2021/12/30 06:24:38;;;;;;;13.55;5.15;;;;;;;;;;5083172;28;20443;-65
2021/12/30 06:27:04;;;;;;;10.98;5.68;;;;;;;;;;5078511;28;20144;-65
2021/12/30 06:29:31;;;;;;;9.57;5.47;;;;;;;;;;5083069;28;20075;-65
2021/12/30 06:31:57;;;;;;;10.88;6.15;;;;;;;;;;5075269;28;20447;-65
2021/12/30 06:34:24;;;;;;;10.93;5.35;;;;;;;;;;5077977;28;20056;-65
2021/12/30 06:36:50;;;;;;;12.93;6.00;;;;;;;;;;5081715;28;20140;-65
2021/12/30 06:39:17;;;;;;;10.65;5.97;;;;;;;;;;5075301;28;20044;-65
2021/12/30 06:41:46;;;;;;;15.82;6.82;;;;;;;;;;5078366;28;20044;-65
2021/12/30 06:44:12;;;;;;;18.08;6.90;;;;;;;;;;5078372;28;20080;-65
2021/12/30 06:46:39;;;;;;;17.52;8.30;;;;;;;;;;5078009;28;20075;-65
2021/12/30 06:49:12;;;;;;;14.00;7.00;;;;;;;;;;5077513;28;20139;-65
2021/12/30 06:51:38;;;;;;;15.18;6.88;;;;;;;;;;5082705;28;20127;-65
2021/12/30 06:54:07;;;;;;;16.65;7.80;;;;;;;;;;5082370;28;20058;-66
2021/12/30 06:56:33;;;;;;;25.97;9.43;;;;;;;;;;5078099;28;20506;-64
2021/12/30 06:59:00;;;;;;;27.13;10.57;;;;;;;;;;5078217;28;20567;-64
2021/12/30 07:01:28;;;;;;;33.15;12.32;;;;;;;;;;5080054;28;20361;-64
2021/12/30 07:03:55;;;;;;;52.00;14.70;;;;;;;;;;5082803;28;20052;-64
2021/12/30 07:06:21;;;;;;;32.85;11.95;;;;;;;;;;5081939;28;20083;-65
2021/12/30 07:08:48;;;;;;;47.90;14.95;;;;;;;;;;5082749;28;20119;-64
2021/12/30 07:11:21;;;;;;;57.10;16.92;;;;;;;;;;5062685;28;20115;-64
2021/12/30 07:13:47;;;;;;;97.53;19.90;;;;;;;;;;5075860;28;20564;-64
2021/12/30 07:16:14;;;;;;;113.18;21.73;;;;;;;;;;5079373;28;20094;-64
2021/12/30 07:18:41;;;;;;;95.03;19.95;;;;;;;;;;5081862;28;20056;-64
2021/12/30 07:21:07;;;;;;;231.93;29.05;;;;;;;;;;5073589;28;20107;-65
2021/12/30 07:23:33;;;;;;;344.55;32.28;;;;;;;;;;5076527;28;20135;-64
2021/12/30 07:26:00;;;;;;;135.77;24.50;;;;;;;;;;5072377;28;20055;-64
2021/12/30 07:28:26;;;;;;;112.05;23.65;;;;;;;;;;5078396;28;20135;-64
2021/12/30 07:30:53;;;;;;;728.35;52.38;;;;;;;;;;5075169;28;20076;-64
2021/12/30 07:33:19;;;;;;;736.72;45.90;;;;;;;;;;5075724;28;20052;-64
2021/12/30 07:35:46;;;;;;;327.42;32.75;;;;;;;;;;5081353;28;20131;-64
2021/12/30 07:38:12;;;;;;;297.05;30.20;;;;;;;;;;5078503;28;20051;-64
2021/12/30 07:40:41;;;;;;;937.72;58.97;;;;;;;;;;5078543;28;20167;-64
2021/12/30 07:43:07;;;;;;;1377.28;81.85;;;;;;;;;;5077680;28;20048;-64
2021/12/30 07:45:34;;;;;;;267.77;31.80;;;;;;;;;;5074803;28;20394;-64
2021/12/30 07:48:03;;;;;;;1117.78;75.13;;;;;;;;;;5074830;28;20051;-64
2021/12/30 07:50:29;;;;;;;1049.38;67.88;;;;;;;;;;5078948;28;20163;-64
2021/12/30 07:52:56;;;;;;;988.60;65.13;;;;;;;;;;5079220;28;20135;-64
2021/12/30 07:55:25;;;;;;;1292.28;84.70;;;;;;;;;;5077868;28;20134;-64
2021/12/30 07:57:55;;;;;;;1680.45;106.60;;;;;;;;;;5080631;28;20078;-64
2021/12/30 08:00:22;;;;;;;1220.97;78.03;;;;;;;;;;5083506;28;20496;-64
2021/12/30 08:02:49;;;;;;;1496.18;92.25;;;;;;;;;;5083387;28;20046;-64
2021/12/30 08:05:16;;;;;;;1601.63;101.20;;;;;;;;;;5083459;28;20083;-65
2021/12/30 08:07:45;;;;;;;1782.85;105.03;;;;;;;;;;5084284;28;20087;-64
2021/12/30 08:10:19;;;;;;;955.33;63.63;;;;;;;;;;5086410;28;20071;-64
2021/12/30 08:12:46;;;;;;;1258.55;78.82;;;;;;;;;;5079783;28;20048;-64
2021/12/30 08:15:13;;;;;;;786.90;50.97;;;;;;;;;;5082702;28;20097;-64
2021/12/30 08:17:47;;;;;;;1109.53;75.53;;;;;;;;;;5081169;28;20131;-64
2021/12/30 08:20:14;;;;;;;1597.25;96.63;;;;;;;;;;5083252;28;20076;-64
2021/12/30 08:22:41;;;;;;;1673.80;104.20;;;;;;;;;;5084744;28;20449;-64
2021/12/30 08:25:09;;;;;;;1598.57;98.97;;;;;;;;;;5082763;28;20562;-64
2021/12/30 08:27:35;;;;;;;;;;;;;;;;;;5088484;28;20084;-63
2021/12/30 08:30:03;;;;;;;1489.88;90.97;;;;;;;;;;5083790;28;19982;-64
2021/12/30 08:32:30;;;;;;;1511.82;92.93;;;;;;;;;;5080583;28;20068;-64
2021/12/30 08:34:56;;;;;;;1623.57;91.43;;;;;;;;;;5081249;28;20079;-64
2021/12/30 08:37:22;;;;;;;1606.53;101.65;;;;;;;;;;5077895;28;20563;-64
2021/12/30 08:39:49;;;;;;;1836.53;114.72;;;;;;;;;;5082974;28;20498;-64
2021/12/30 08:42:23;;;;;;;1999.90;115.05;;;;;;;;;;5083185;28;20431;-64
2021/12/30 08:44:50;;;;;;;1999.90;121.25;;;;;;;;;;5081489;28;20123;-64
2021/12/30 08:47:17;;;;;;;1684.20;102.28;;;;;;;;;;5082398;28;20135;-64
2021/12/30 08:49:46;;;;;;;1909.30;114.57;;;;;;;;;;5081502;28;20474;-64
2021/12/30 08:52:14;;;;;;;1956.15;110.05;;;;;;;;;;5080498;28;20052;-64
2021/12/30 08:54:40;;;;;;;1555.97;100.78;;;;;;;;;;5081857;28;20520;-64
2021/12/30 08:57:07;;;;;;;1931.75;116.22;;;;;;;;;;5079636;28;20075;-64
2021/12/30 08:59:35;;;;;;;1710.78;100.38;;;;;;;;;;5083788;28;20094;-64
2021/12/30 09:02:01;;;;;;;;;;;;;;;;;;5081910;28;20678;-64
2021/12/30 09:04:27;;;;;;;1517.35;86.13;;;;;;;;;;5085581;28;19926;-64
2021/12/30 09:06:54;;;;;;;1491.60;90.70;;;;;;;;;;5077789;28;20134;-64
2021/12/30 09:09:25;;;;;;;1435.07;87.70;;;;;;;;;;5078451;28;20094;-64
2021/12/30 09:11:52;;;;;;;1209.77;71.60;;;;;;;;;;5078485;28;20072;-63
2021/12/30 09:14:19;;;;;;;1893.07;109.07;;;;;;;;;;5078638;28;20425;-63
2021/12/30 09:16:48;;;;;;;1373.67;84.90;;;;;;;;;;5080157;28;20079;-64
2021/12/30 09:19:15;;;;;;;1669.25;99.30;;;;;;;;;;5086273;28;20598;-64
2021/12/30 09:21:42;;;;;;;1758.70;99.88;;;;;;;;;;5071348;28;20564;-64
2021/12/30 09:24:08;;;;;;;1684.30;102.22;;;;;;;;;;5066808;28;20036;-64
2021/12/30 09:26:35;;;;;;;807.17;46.80;;;;;;;;;;5081135;28;20663;-64
2021/12/30 09:29:04;;;;;;;1679.35;96.53;;;;;;;;;;5077605;28;20143;-64
2021/12/30 09:31:30;;;;;;;1642.78;87.72;;;;;;;;;;5077163;28;20141;-64
2021/12/30 09:33:57;;;;;;;1422.13;75.75;;;;;;;;;;5075663;28;20134;-64
2021/12/30 09:36:26;;;;;;;1255.30;73.38;;;;;;;;;;5082925;28;20052;-66
2021/12/30 09:38:52;;;;;;;1498.35;81.75;;;;;;;;;;5080553;28;20115;-64
2021/12/30 09:41:19;;;;;;;1616.40;84.00;;;;;;;;;;5084001;28;20129;-64
2021/12/30 09:43:45;;;;;;;1568.65;90.10;;;;;;;;;;5078180;28;20235;-64
2021/12/30 09:46:14;;;;;;;1560.28;81.38;;;;;;;;;;5083159;28;20045;-64
2021/12/30 09:48:41;;;;;;;1679.38;86.78;;;;;;;;;;5084020;28;20076;-64
2021/12/30 09:51:08;;;;;;;1240.03;63.95;;;;;;;;;;5084523;28;20082;-64
2021/12/30 09:53:34;;;;;;;825.03;44.42;;;;;;;;;;5079236;28;20159;-64
2021/12/30 09:56:01;;;;;;;1108.20;60.42;;;;;;;;;;5073811;28;20113;-64
2021/12/30 09:58:28;;;;;;;1154.93;63.15;;;;;;;;;;5059006;28;20070;-64
2021/12/30 10:00:55;;;;;;;1307.45;74.13;;;;;;;;;;5055270;28;20153;-65
2021/12/30 10:03:23;;;;;;;891.97;48.83;;;;;;;;;;5055750;28;22375;-64
2021/12/30 10:05:50;;;;;;;956.92;49.95;;;;;;;;;;5056492;28;20076;-64
2021/12/30 10:08:18;;;;;;;816.63;43.38;;;;;;;;;;5057722;28;20066;-65
2021/12/30 10:10:46;;;;;;;300.40;17.58;;;;;;;;;;5055744;28;20250;-64
2021/12/30 10:13:24;;;;;;;337.85;20.35;;;;;;;;;;5055014;28;20052;-64
2021/12/30 10:15:52;;;;;;;409.15;20.60;;;;;;;;;;5057518;28;20556;-64
2021/12/30 10:18:19;;;;;;;793.03;38.53;;;;;;;;;;5055065;28;20052;-64
2021/12/30 10:20:46;;;;;;;936.83;49.50;;;;;;;;;;5054317;28;20044;-64
2021/12/30 10:23:14;;;;;;;1054.68;52.92;;;;;;;;;;5049431;28;20143;-64
2021/12/30 10:25:42;;;;;;;1244.60;65.55;;;;;;;;;;5054408;28;20568;-64
2021/12/30 10:28:08;;;;;;;;;;;;;;;;;;5053133;28;20134;-64
2021/12/30 10:30:34;;;;;;;1210.05;61.00;;;;;;;;;;5050768;28;19950;-65
2021/12/30 10:33:11;;;;;;;978.80;48.05;;;;;;;;;;5054440;28;20059;-64
2021/12/30 10:35:38;;;;;;;861.17;42.63;;;;;;;;;;5051619;28;20148;-65
2021/12/30 10:38:08;;;;;;;926.85;43.15;;;;;;;;;;5051620;28;20385;-65
2021/12/30 10:40:36;;;;;;;934.80;46.30;;;;;;;;;;5053920;28;20067;-65
2021/12/30 10:43:20;;;;;;;1402.60;72.28;;;;;;;;;;5052054;28;20143;-65
2021/12/30 10:46:05;;;;;;;1263.10;66.22;;;;;;;;;;5050647;28;20127;-65
2021/12/30 10:48:33;;;;;;;1433.70;75.97;;;;;;;;;;5056099;28;20113;-65
2021/12/30 10:51:28;;;;;;;1343.53;70.18;;;;;;;;;;5060779;28;20048;-65
2021/12/30 10:53:56;;;;;;;1514.07;80.82;;;;;;;;;;5038806;28;20504;-65
2021/12/30 10:56:23;;;;;;;;;;;;;;;;;;5042341;28;20127;-65
2021/12/30 10:58:50;;;;;;;926.63;44.03;;;;;;;;;;5039529;28;20522;-65
2021/12/30 11:01:18;;;;;;;1329.03;67.30;;;;;;;;;;5048470;28;20091;-66
2021/12/30 11:04:03;;;;;;;1332.75;69.25;;;;;;;;;;5044241;28;20588;-65
2021/12/30 11:06:29;;;;;;;1177.00;65.85;;;;;;;;;;5047306;28;20159;-66
2021/12/30 11:09:04;;;;;;;1570.97;73.85;;;;;;;;;;5055115;28;20064;-65
2021/12/30 11:11:30;;;;;;;1514.38;78.38;;;;;;;;;;5060029;28;20551;-65
2021/12/30 11:14:00;;;;;;;1178.28;60.88;;;;;;;;;;5049862;28;20084;-65
2021/12/30 11:16:26;;;;;;;1449.55;72.45;;;;;;;;;;5052485;28;20080;-65
2021/12/30 11:18:56;;;;;;;561.33;29.65;;;;;;;;;;5055715;28;20048;-66
2021/12/30 11:21:42;;;;;;;945.60;45.30;;;;;;;;;;5059401;28;20057;-65
2021/12/30 11:24:09;;;;;;;262.20;17.42;;;;;;;;;;5059915;28;20049;-65
2021/12/30 11:26:35;;;;;;;928.15;44.20;;;;;;;;;;5054668;28;20072;-65
2021/12/30 11:29:03;;;;;;;921.65;41.80;;;;;;;;;;5057404;28;20084;-65
2021/12/30 11:31:30;;;;;;;808.28;41.03;;;;;;;;;;5040146;28;20072;-65
2021/12/30 11:33:59;;;;;;;1348.10;68.15;;;;;;;;;;5053347;28;20076;-65
2021/12/30 11:36:29;;;;;;;406.40;23.73;;;;;;;;;;5061196;28;20131;-65
2021/12/30 11:38:59;;;;;;;1432.50;71.03;;;;;;;;;;5062739;28;20048;-65
2021/12/30 11:41:27;;;;;;;996.50;50.90;;;;;;;;;;5059880;28;20646;-65
2021/12/30 11:43:55;;;;;;;889.70;41.70;;;;;;;;;;5059543;28;20139;-65
2021/12/30 11:46:40;;;;;;;342.80;17.77;;;;;;;;;;5056919;28;20103;-65
2021/12/30 11:49:08;;;;;;;997.85;46.78;;;;;;;;;;5064438;28;20245;-65
2021/12/30 11:51:42;;;;;;;885.65;42.80;;;;;;;;;;5057967;28;20056;-65
2021/12/30 11:54:27;;;;;;;1102.47;55.42;;;;;;;;;;5061498;28;20127;-65
2021/12/30 11:57:27;;;;;;;966.30;45.70;;;;;;;;;;5059536;28;20092;-65
2021/12/30 11:59:54;;;;;;;862.67;41.63;;;;;;;;;;5009402;28;20098;-65
2021/12/30 12:02:30;;;;;;;888.08;41.20;;;;;;;;;;5059576;28;20148;-65
2021/12/30 12:04:56;;;;;;;997.03;45.60;;;;;;;;;;5061079;28;20049;-65
2021/12/30 12:07:26;;;;;;;567.08;28.10;;;;;;;;;;5049461;28;20043;-65
2021/12/30 12:09:52;;;;;;;560.80;27.27;;;;;;;;;;5056632;28;20534;-65
2021/12/30 12:12:38;;;;;;;693.47;32.40;;;;;;;;;;5058966;28;20520;-65
2021/12/30 12:15:05;;;;;;;756.90;34.95;;;;;;;;;;5058339;28;20124;-65
2021/12/30 12:17:36;;;;;;;822.63;41.00;;;;;;;;;;5053281;28;20126;-65
2021/12/30 12:20:23;;;;;;;702.80;31.67;;;;;;;;;;5057834;28;20127;-65
2021/12/30 12:22:50;;;;;;;596.60;30.97;;;;;;;;;;5048542;28;20139;-65
2021/12/30 12:25:22;;;;;;;445.90;19.60;;;;;;;;;;5053499;28;20132;-65
2021/12/30 12:27:50;;;;;;;608.42;29.00;;;;;;;;;;5053058;28;20103;-65
2021/12/30 12:30:21;;;;;;;614.28;27.40;;;;;;;;;;5058013;28;20138;-65
2021/12/30 12:32:47;;;;;;;1012.20;50.08;;;;;;;;;;5059899;28;20048;-64
2021/12/30 12:35:14;;;;;;;488.50;23.97;;;;;;;;;;5053307;28;20132;-65
2021/12/30 12:37:40;;;;;;;1069.85;53.40;;;;;;;;;;5060871;28;20123;-65
2021/12/30 12:40:12;;;;;;;1003.03;47.03;;;;;;;;;;5053962;28;20044;-65
2021/12/30 12:42:42;;;;;;;396.35;20.15;;;;;;;;;;5026965;28;20059;-65
2021/12/30 12:45:32;;;;;;;242.73;14.98;;;;;;;;;;5043199;28;20490;-65
2021/12/30 12:48:20;;;;;;;865.08;41.92;;;;;;;;;;5018918;28;20055;-65
2021/12/30 12:50:53;;;;;;;611.67;26.88;;;;;;;;;;5052798;28;20135;-65
2021/12/30 12:53:28;;;;;;;252.27;16.55;;;;;;;;;;5053447;28;20148;-65
2021/12/30 12:55:56;;;;;;;627.25;30.05;;;;;;;;;;5039101;28;20813;-65
2021/12/30 12:58:22;;;;;;;;;;;;;;;;;;5033712;28;20128;-65
2021/12/30 13:00:49;;;;;;;615.03;26.83;;;;;;;;;;5032676;28;19956;-65
2021/12/30 13:03:16;;;;;;;734.80;38.50;;;;;;;;;;5034368;28;20151;-65
2021/12/30 13:05:53;;;;;;;854.38;40.33;;;;;;;;;;5033608;28;20046;-65
2021/12/30 13:08:20;;;;;;;1217.07;59.38;;;;;;;;;;5038319;28;20053;-65
2021/12/30 13:10:47;;;;;;;1012.42;48.72;;;;;;;;;;5026356;28;20165;-65
2021/12/30 13:13:26;;;;;;;1092.47;54.30;;;;;;;;;;5039998;28;20147;-65
2021/12/30 13:15:52;;;;;;;1065.28;52.47;;;;;;;;;;5040306;28;20851;-65
2021/12/30 13:18:19;;;;;;;1406.05;67.55;;;;;;;;;;5038786;28;20484;-65
2021/12/30 13:20:48;;;;;;;1412.00;77.78;;;;;;;;;;5042667;28;20128;-65
2021/12/30 13:23:44;;;;;;;1326.78;66.05;;;;;;;;;;5038504;28;20139;-65
2021/12/30 13:26:10;;;;;;;1195.60;61.10;;;;;;;;;;5029357;28;20164;-65
2021/12/30 13:28:47;;;;;;;1485.60;75.22;;;;;;;;;;5042140;28;20045;-65
2021/12/30 13:31:16;;;;;;;1647.75;83.93;;;;;;;;;;5036676;28;20152;-65
2021/12/30 13:33:58;;;;;;;1495.03;78.25;;;;;;;;;;5040014;28;20492;-65
2021/12/30 13:36:35;;;;;;;1674.57;87.78;;;;;;;;;;5038521;28;20050;-65
2021/12/30 13:39:13;;;;;;;1504.70;74.20;;;;;;;;;;5044396;28;20076;-65
2021/12/30 13:41:50;;;;;;;1570.55;79.97;;;;;;;;;;5038502;28;20056;-65
2021/12/30 13:44:18;;;;;;;800.22;45.67;;;;;;;;;;5035971;28;20049;-65
2021/12/30 13:46:46;;;;;;;1548.07;94.88;;;;;;;;;;5039617;28;20128;-65
2021/12/30 13:49:13;;;;;;;1467.00;92.18;;;;;;;;;;5038121;28;20076;-65
2021/12/30 13:51:40;;;;;;;1314.03;68.53;;;;;;;;;;5031839;28;20136;-66
2021/12/30 13:54:07;;;;;;;1477.72;82.75;;;;;;;;;;5038158;28;20139;-65
2021/12/30 13:56:34;;;;;;;1727.25;85.53;;;;;;;;;;5035710;28;20117;-66
2021/12/30 13:59:05;;;;;;;852.08;42.88;;;;;;;;;;5032395;28;20139;-66
2021/12/30 14:01:34;;;;;;;1022.92;61.65;;;;;;;;;;5080685;28;20472;-65
2021/12/30 14:04:13;;;;;;;1595.32;90.78;;;;;;;;;;5083065;28;20048;-65
2021/12/30 14:06:41;;;;;;;730.55;46.28;;;;;;;;;;5074619;28;20098;-66
2021/12/30 14:09:08;;;;;;;1315.43;73.22;;;;;;;;;;5077126;28;20049;-66
2021/12/30 14:11:35;;;;;;;1657.30;90.35;;;;;;;;;;5076908;28;20472;-66
2021/12/30 14:14:02;;;;;;;;;;;;;;;;;;5079787;28;20136;-66
2021/12/30 14:16:31;;;;;;;1515.28;82.93;;;;;;;;;;5077070;28;20014;-66
2021/12/30 14:18:58;;;;;;;1362.47;77.00;;;;;;;;;;5079718;28;20457;-66
2021/12/30 14:21:32;;;;;;;1234.83;68.87;;;;;;;;;;5076723;28;20142;-66
2021/12/30 14:24:10;;;;;;;1153.32;69.97;;;;;;;;;;5098090;28;20377;-66